Grand Forks, Canada
Current Conditions -  °F | °C
As of 5:00 PM on Wednesday 26 Nov 2014 (Local Time) from CYCG Reporting Station
Haze Haze  
Wind Chill: 34°   Ceiling: 2500
Heat Index: 34°   Visibility: 6mi
Dew Point: 32°   Wind: 2mph
Humidity: 93%   Direction: NA
Pressure: 30.1"   Gusts: NA
Location:  49.05°N, 118.47°W
Report Text: CYCG 270100Z VRB02KT 6SM BR SCT002 OVC025 01/00 A3010 RMK ST3SC5 LAST OBS/NEXT 271400UTC SLP211
Loading
Personal Weather Stations






























Interactive Weather Map New forecast layout! Learn more

10-Day Weather Forecast

Advertisements
Track Severe Weather on mobile